Time;durP1;ratioP1;P1;durP2;ratioP2;P2;SDS_P1;SDS_P2;PMS_P1;PMS_P2;Temp;Humidity;BMP_temperature;BMP_pressure;BME280_temperature;BME280_humidity;BME280_pressure;Samples;Min_cycle;Max_cycle;Signal;HPM_P1;HPM_P2
2023/04/27 00:02:05;;;;;;;18.92;9.23;;;;;;;9.37;74.64;98533.34;7346443;19;20035;-74
2023/04/27 00:04:30;;;;;;;18.20;11.50;;;;;;;9.33;75.12;98539.09;7344860;19;20033;-73
2023/04/27 00:06:55;;;;;;;16.23;9.80;;;;;;;9.36;75.01;98554.78;7347253;19;20022;-74
2023/04/27 00:09:20;;;;;;;21.23;9.52;;;;;;;9.37;75.14;98535.16;7343388;19;20011;-73
2023/04/27 00:11:45;;;;;;;20.30;10.70;;;;;;;9.35;75.47;98540.66;7345918;19;20505;-73
2023/04/27 00:14:10;;;;;;;23.15;10.82;;;;;;;9.35;75.58;98531.81;7344322;19;20026;-71
2023/04/27 00:16:34;;;;;;;18.73;10.13;;;;;;;9.38;75.39;98544.84;7343573;19;20078;-72
2023/04/27 00:18:59;;;;;;;24.20;10.20;;;;;;;9.40;75.14;98556.19;7344084;19;20340;-70
2023/04/27 00:21:24;;;;;;;20.60;10.80;;;;;;;9.40;75.25;98551.72;7347239;19;20018;-79
2023/04/27 00:23:49;;;;;;;18.52;11.13;;;;;;;9.40;75.15;98540.25;7350450;19;20460;-77
2023/04/27 00:26:13;;;;;;;23.20;12.60;;;;;;;9.44;74.94;98547.84;7349114;19;20469;-77
2023/04/27 00:28:41;;;;;;;17.52;10.45;;;;;;;9.48;74.96;98553.72;7348231;19;20030;-77
2023/04/27 00:31:06;;;;;;;22.25;10.63;;;;;;;9.52;75.07;98546.34;7346729;19;20019;-80
2023/04/27 00:33:31;;;;;;;19.33;11.50;;;;;;;9.51;74.94;98548.16;7348773;19;20014;-78
2023/04/27 00:36:00;;;;;;;23.02;10.40;;;;;;;9.50;75.04;98545.63;7349141;19;20314;-78
2023/04/27 00:38:26;;;;;;;19.23;11.10;;;;;;;9.48;75.24;98543.94;7346865;19;20022;-79
2023/04/27 00:40:51;;;;;;;22.98;10.25;;;;;;;9.46;75.51;98540.59;7343279;19;20026;-80
2023/04/27 00:43:17;;;;;;;17.05;9.90;;;;;;;9.43;75.86;98537.34;7342308;19;20038;-72
2023/04/27 00:45:42;;;;;;;22.70;10.60;;;;;;;9.39;76.04;98535.88;7340323;19;20094;-74
2023/04/27 00:48:11;;;;;;;22.40;10.93;;;;;;;9.42;76.22;98543.63;7341117;19;20027;-75
2023/04/27 00:50:37;;;;;;;27.15;11.63;;;;;;;9.41;76.12;98542.78;7341647;19;20359;-73
2023/04/27 00:53:05;;;;;;;19.65;10.15;;;;;;;9.39;76.13;98552.69;7343431;19;20054;-79
2023/04/27 00:55:30;;;;;;;20.70;10.75;;;;;;;9.37;75.93;98551.13;7340997;19;20011;-77
2023/04/27 00:57:55;;;;;;;16.98;9.50;;;;;;;9.36;75.99;98557.44;7344387;19;20007;-78
2023/04/27 01:00:20;;;;;;;23.08;11.32;;;;;;;9.32;75.99;98556.84;7346304;19;20474;-79
2023/04/27 01:02:46;;;;;;;20.42;10.18;;;;;;;9.28;76.10;98550.09;7342780;19;20366;-82
2023/04/27 01:05:11;;;;;;;17.73;10.27;;;;;;;9.28;76.30;98559.88;7343262;19;20023;-80
2023/04/27 01:07:37;;;;;;;17.80;11.00;;;;;;;9.26;76.32;98559.16;7341815;19;20027;-76
2023/04/27 01:10:03;;;;;;;25.58;10.90;;;;;;;9.22;76.37;98555.09;7342037;19;20010;-78
2023/04/27 01:12:28;;;;;;;18.08;9.95;;;;;;;9.19;76.49;98552.69;7343589;19;20478;-79
2023/04/27 01:14:54;;;;;;;21.08;10.98;;;;;;;9.16;76.64;98552.91;7345198;19;20471;-77
2023/04/27 01:17:19;;;;;;;17.95;9.80;;;;;;;9.16;76.45;98551.09;7346166;19;20026;-77
2023/04/27 01:19:44;;;;;;;20.85;10.55;;;;;;;9.15;76.47;98546.75;7343789;19;20825;-78
2023/04/27 01:22:09;;;;;;;17.05;10.48;;;;;;;9.16;76.72;98542.28;7341661;19;20455;-77
2023/04/27 01:24:34;;;;;;;18.98;10.90;;;;;;;9.16;76.65;98542.28;7339747;19;20462;-77
2023/04/27 01:26:59;;;;;;;26.77;11.48;;;;;;;9.15;76.64;98546.75;7343222;19;20018;-79
2023/04/27 01:29:24;;;;;;;19.38;10.52;;;;;;;9.15;76.50;98541.44;7343884;19;20469;-78
2023/04/27 01:31:48;;;;;;;19.40;11.02;;;;;;;9.18;76.24;98535.03;7345088;19;20014;-77
2023/04/27 01:34:13;;;;;;;24.58;11.95;;;;;;;9.22;76.26;98547.97;7344114;19;20428;-77
2023/04/27 01:36:38;;;;;;;22.02;12.50;;;;;;;9.21;76.43;98540.09;7344726;19;20023;-79
2023/04/27 01:39:07;;;;;;;21.45;11.23;;;;;;;9.22;76.44;98542.63;7342552;19;20015;-73
2023/04/27 01:41:32;;;;;;;19.10;10.27;;;;;;;9.18;76.68;98535.03;7340704;19;20083;-76
2023/04/27 01:43:57;;;;;;;16.63;10.63;;;;;;;9.17;76.85;98539.50;7342002;19;20027;-79
2023/04/27 01:46:21;;;;;;;21.42;10.27;;;;;;;9.20;76.78;98546.38;7343738;19;20345;-79
2023/04/27 01:48:48;;;;;;;23.35;11.43;;;;;;;9.18;77.06;98537.69;7340605;19;20021;-70
2023/04/27 01:51:12;;;;;;;19.13;10.82;;;;;;;9.16;76.83;98542.28;7341601;19;20014;-70
2023/04/27 01:53:37;;;;;;;21.50;10.63;;;;;;;9.12;76.75;98548.84;7339200;19;20098;-71
2023/04/27 01:56:02;;;;;;;18.55;10.02;;;;;;;9.06;76.44;98547.53;7338648;19;20015;-71
2023/04/27 01:58:27;;;;;;;25.30;11.90;;;;;;;9.01;76.31;98547.94;7341038;19;20025;-66
2023/04/27 02:00:51;;;;;;;17.75;10.05;;;;;;;8.98;76.42;98550.81;7338289;19;20015;-67
2023/04/27 02:03:16;;;;;;;21.27;10.23;;;;;;;8.90;76.76;98547.13;7342470;19;20014;-67
2023/04/27 02:05:41;;;;;;;18.13;10.10;;;;;;;8.89;77.04;98556.06;7338220;19;20469;-63
2023/04/27 02:08:06;;;;;;;17.20;10.10;;;;;;;9.04;76.72;98555.63;7339438;19;20090;-63
2023/04/27 02:10:31;;;;;;;18.33;12.10;;;;;;;9.04;76.96;98549.47;7338835;19;20015;-67
2023/04/27 02:12:58;;;;;;;18.48;9.93;;;;;;;9.09;76.45;98552.59;7340114;19;20468;-69
2023/04/27 02:15:23;;;;;;;18.58;10.40;;;;;;;9.13;76.62;98558.53;7339175;19;20356;-67
2023/04/27 02:17:49;;;;;;;16.02;11.35;;;;;;;9.16;76.44;98558.25;7338085;19;20085;-65
2023/04/27 02:20:14;;;;;;;22.08;10.93;;;;;;;9.22;76.08;98563.06;7340100;19;20029;-70
2023/04/27 02:22:44;;;;;;;17.75;10.55;;;;;;;9.18;76.01;98567.78;7342973;19;20011;-70
2023/04/27 02:25:11;;;;;;;16.17;10.57;;;;;;;9.24;76.00;98571.78;7338738;19;20014;-76
2023/04/27 02:27:42;;;;;;;22.20;11.77;;;;;;;9.33;76.28;98565.69;7345769;19;20015;-68
2023/04/27 02:30:08;;;;;;;23.02;11.27;;;;;;;9.33;76.39;98571.00;7345503;19;20019;-69
2023/04/27 02:32:33;;;;;;;22.58;11.70;;;;;;;9.35;76.35;98575.22;7345113;19;20022;-70
2023/04/27 02:34:58;;;;;;;23.27;12.32;;;;;;;9.40;76.48;98572.16;7346187;19;20018;-69
2023/04/27 02:37:25;;;;;;;20.77;11.75;;;;;;;9.50;76.52;98583.72;7347740;19;20025;-75
2023/04/27 02:39:50;;;;;;;19.15;11.88;;;;;;;9.54;76.09;98579.84;7347345;19;20110;-73
2023/04/27 02:42:15;;;;;;;15.65;10.00;;;;;;;9.61;75.77;98580.16;7346895;19;20026;-70
2023/04/27 02:44:40;;;;;;;22.25;11.93;;;;;;;9.74;75.41;98578.16;7342833;19;20006;-70
2023/04/27 02:47:05;;;;;;;19.15;11.25;;;;;;;9.83;74.99;98582.69;7345314;19;20015;-74
2023/04/27 02:49:30;;;;;;;15.40;10.63;;;;;;;9.93;74.61;98580.09;7345643;19;20347;-73
2023/04/27 02:51:55;;;;;;;23.17;12.45;;;;;;;10.00;74.01;98586.56;7345128;19;20108;-75
2023/04/27 02:54:20;;;;;;;19.67;10.10;;;;;;;10.08;73.88;98584.94;7345892;19;20011;-73
2023/04/27 02:56:44;;;;;;;20.30;10.50;;;;;;;10.17;73.65;98583.28;7344180;19;20006;-71
2023/04/27 02:59:09;;;;;;;18.38;11.32;;;;;;;10.30;73.25;98589.28;7344444;19;20028;-72
2023/04/27 03:01:34;;;;;;;21.85;10.77;;;;;;;10.38;73.16;98597.47;7343857;19;20687;-74
2023/04/27 03:03:59;;;;;;;18.40;12.25;;;;;;;10.48;73.01;98594.84;7343940;19;20018;-73
2023/04/27 03:06:24;;;;;;;13.90;9.23;;;;;;;10.60;72.54;98596.41;7348470;19;20033;-73
2023/04/27 03:08:48;;;;;;;15.95;9.07;;;;;;;10.75;71.66;98607.53;7348172;19;20010;-77
2023/04/27 03:11:13;;;;;;;14.85;9.68;;;;;;;10.86;71.16;98594.94;7347116;19;20037;-75
2023/04/27 03:13:41;;;;;;;20.35;11.57;;;;;;;11.03;71.23;98604.09;7349811;19;20063;-72
2023/04/27 03:16:10;;;;;;;15.75;10.32;;;;;;;11.24;70.41;98609.31;7346166;19;20014;-65
2023/04/27 03:18:35;;;;;;;18.10;11.10;;;;;;;11.39;69.75;98615.09;7350503;19;20292;-68
2023/04/27 03:21:08;;;;;;;17.52;9.82;;;;;;;11.55;69.28;98610.88;7347887;19;20014;-73
2023/04/27 03:23:34;;;;;;;15.27;11.05;;;;;;;11.72;68.18;98617.34;7346255;19;20019;-71
2023/04/27 03:25:59;;;;;;;17.38;11.13;;;;;;;11.84;67.49;98615.41;7351555;19;20018;-71
2023/04/27 03:28:24;;;;;;;19.88;11.52;;;;;;;11.92;68.15;98608.34;7350472;19;20014;-70
2023/04/27 03:30:48;;;;;;;22.38;10.70;;;;;;;12.07;68.57;98623.94;7348309;19;20027;-70
2023/04/27 03:33:13;;;;;;;27.73;12.43;;;;;;;12.14;68.51;98617.00;7347598;19;20024;-69
2023/04/27 03:35:40;;;;;;;17.40;11.43;;;;;;;12.14;67.66;98617.00;7348101;19;20034;-69
2023/04/27 03:38:04;;;;;;;15.93;11.20;;;;;;;12.23;67.27;98624.16;7345065;19;20010;-69
2023/04/27 03:40:32;;;;;;;13.57;9.93;;;;;;;12.37;66.37;98631.72;7348443;19;20018;-70
2023/04/27 03:42:57;;;;;;;17.48;11.43;;;;;;;12.44;66.07;98629.28;7345973;19;20089;-70
2023/04/27 03:45:23;;;;;;;19.15;11.13;;;;;;;12.56;65.52;98628.97;7346305;19;20010;-70
2023/04/27 03:47:49;;;;;;;18.67;9.55;;;;;;;12.68;64.86;98626.94;7345057;19;20022;-70
2023/04/27 03:50:15;;;;;;;18.38;9.68;;;;;;;12.87;64.51;98634.88;7345259;19;20112;-69
2023/04/27 03:52:39;;;;;;;16.35;9.50;;;;;;;13.01;64.17;98633.53;7340639;19;20006;-70
2023/04/27 03:55:05;;;;;;;22.13;10.02;;;;;;;13.17;63.43;98641.78;7340646;19;20018;-70
2023/04/27 03:57:31;;;;;;;17.00;11.07;;;;;;;13.26;63.42;98638.22;7344279;19;20006;-70
2023/04/27 03:59:56;;;;;;;19.27;10.05;;;;;;;13.38;63.23;98633.47;7339516;19;20007;-70
2023/04/27 04:02:23;;;;;;;15.52;10.25;;;;;;;13.53;62.79;98634.66;7340257;19;20018;-69
2023/04/27 04:04:47;;;;;;;17.67;10.73;;;;;;;13.71;62.55;98646.19;7338179;19;20023;-69
2023/04/27 04:07:12;;;;;;;17.42;8.90;;;;;;;13.84;61.93;98639.59;7340290;19;20014;-68
2023/04/27 04:09:37;;;;;;;17.70;11.15;;;;;;;14.00;61.58;98631.69;7341076;19;20031;-68
2023/04/27 04:12:02;;;;;;;16.20;10.15;;;;;;;14.18;61.28;98645.91;7341712;19;20014;-69
2023/04/27 04:14:27;;;;;;;16.42;9.25;;;;;;;14.40;60.67;98644.56;7339923;19;20125;-68
2023/04/27 04:16:53;;;;;;;11.73;8.43;;;;;;;14.54;60.00;98646.69;7343429;19;20011;-71
2023/04/27 04:19:19;;;;;;;16.60;9.45;;;;;;;14.80;59.63;98646.63;7340741;19;20022;-69
2023/04/27 04:21:44;;;;;;;15.52;9.48;;;;;;;15.02;58.58;98642.53;7341449;19;20046;-68
2023/04/27 04:24:09;;;;;;;12.02;8.90;;;;;;;15.21;58.13;98645.81;7343287;19;20018;-69
2023/04/27 04:26:34;;;;;;;20.60;9.55;;;;;;;15.46;57.34;98644.00;7349406;19;20334;-70
2023/04/27 04:28:58;;;;;;;12.90;9.27;;;;;;;15.75;56.21;98645.44;7342435;19;20026;-69
2023/04/27 04:31:23;;;;;;;14.70;10.07;;;;;;;15.94;55.89;98651.31;7341759;19;20014;-69
2023/04/27 04:33:48;;;;;;;13.15;9.05;;;;;;;16.22;55.21;98654.50;7343159;19;20014;-71
2023/04/27 04:36:14;;;;;;;12.88;9.43;;;;;;;16.28;54.76;98653.81;7341681;19;20011;-69
2023/04/27 04:38:38;;;;;;;18.38;10.30;;;;;;;16.34;54.94;98650.47;7342666;19;20045;-69
2023/04/27 04:41:03;;;;;;;14.55;10.18;;;;;;;16.43;54.79;98647.75;7341397;19;20015;-70
2023/04/27 04:43:30;;;;;;;18.88;9.88;;;;;;;16.69;54.52;98653.78;7340088;19;20018;-70
2023/04/27 04:45:55;;;;;;;17.27;10.65;;;;;;;17.02;53.89;98654.53;7340723;19;20038;-72
2023/04/27 04:48:21;;;;;;;18.65;10.43;;;;;;;17.30;52.85;98658.41;7343277;19;20014;-72
2023/04/27 04:50:46;;;;;;;19.48;11.20;;;;;;;17.34;52.31;98648.13;7340683;19;20129;-68
2023/04/27 04:53:11;;;;;;;17.98;10.10;;;;;;;17.47;51.55;98652.94;7341282;19;20029;-69
2023/04/27 04:55:36;;;;;;;13.75;8.18;;;;;;;17.61;51.54;98654.84;7341299;19;20011;-70
2023/04/27 04:58:01;;;;;;;16.65;10.07;;;;;;;17.73;51.12;98645.38;7340774;19;20034;-69
2023/04/27 05:00:26;;;;;;;22.10;10.80;;;;;;;17.89;50.69;98647.13;7339644;19;20059;-70
2023/04/27 05:02:51;;;;;;;18.67;9.52;;;;;;;18.08;50.14;98654.72;7340065;19;20006;-68
2023/04/27 05:05:16;;;;;;;18.15;10.80;;;;;;;18.43;49.30;98651.38;7343889;19;20018;-71
2023/04/27 05:07:40;;;;;;;14.73;9.23;;;;;;;18.98;48.05;98660.94;7343460;19;20027;-69
2023/04/27 05:10:05;;;;;;;15.45;10.05;;;;;;;19.27;46.67;98664.66;7342523;19;20018;-70
2023/04/27 05:12:30;;;;;;;17.05;9.77;;;;;;;19.69;46.39;98664.75;7340411;19;20026;-70
2023/04/27 05:14:55;;;;;;;9.82;8.30;;;;;;;20.12;44.79;98668.31;7342793;19;20021;-70
2023/04/27 05:17:20;;;;;;;17.42;7.70;;;;;;;20.21;44.17;98666.28;7345538;19;20039;-69
2023/04/27 05:19:45;;;;;;;11.63;8.27;;;;;;;20.17;43.10;98665.88;7341450;19;20035;-72
2023/04/27 05:22:10;;;;;;;13.88;9.20;;;;;;;20.43;43.40;98659.84;7343511;19;20129;-71
2023/04/27 05:24:34;;;;;;;9.98;7.18;;;;;;;20.60;42.50;98668.53;7339533;19;20010;-72
2023/04/27 05:26:59;;;;;;;11.48;7.45;;;;;;;21.11;42.00;98665.50;7344836;19;20006;-70
2023/04/27 05:29:24;;;;;;;10.13;7.40;;;;;;;21.65;41.44;98654.72;7339620;19;20026;-72
2023/04/27 05:31:49;;;;;;;10.65;7.57;;;;;;;22.39;40.65;98657.34;7339454;19;20035;-68
2023/04/27 05:34:14;;;;;;;11.98;7.32;;;;;;;22.89;38.07;98666.75;7344768;19;20011;-70
2023/04/27 05:36:39;;;;;;;10.77;6.65;;;;;;;23.17;37.11;98666.47;7341554;19;20469;-69
2023/04/27 05:39:03;;;;;;;12.15;7.38;;;;;;;23.02;36.89;98661.28;7341556;19;20086;-69
2023/04/27 05:41:28;;;;;;;10.38;6.90;;;;;;;23.45;36.87;98655.28;7343626;19;20041;-70
2023/04/27 05:43:53;;;;;;;9.38;7.00;;;;;;;24.08;36.34;98655.34;7338647;19;20003;-71
2023/04/27 05:46:19;;;;;;;9.43;7.68;;;;;;;24.26;34.82;98654.66;7341501;19;20010;-69
2023/04/27 05:48:44;;;;;;;14.85;8.02;;;;;;;24.31;34.41;98655.63;7341242;19;20019;-71
2023/04/27 05:51:08;;;;;;;13.45;8.07;;;;;;;24.74;34.14;98666.56;7341502;19;20014;-70
2023/04/27 05:53:33;;;;;;;10.10;7.22;;;;;;;24.77;33.62;98666.13;7341089;19;20082;-69
2023/04/27 05:55:59;;;;;;;11.30;6.55;;;;;;;24.43;33.34;98670.22;7342434;19;20474;-69
2023/04/27 05:58:24;;;;;;;12.73;6.70;;;;;;;24.47;33.27;98665.16;7340618;19;20137;-70
2023/04/27 06:00:49;;;;;;;10.90;6.57;;;;;;;24.95;32.86;98671.63;7338712;19;20034;-69
2023/04/27 06:03:14;;;;;;;10.85;6.72;;;;;;;25.20;31.85;98671.59;7342671;19;20806;-70
2023/04/27 06:05:38;;;;;;;10.73;5.90;;;;;;;25.23;31.52;98657.50;7339755;19;20391;-70
2023/04/27 06:08:03;;;;;;;9.13;5.53;;;;;;;25.39;32.13;98663.41;7340303;19;20018;-69
2023/04/27 06:10:28;;;;;;;13.10;6.05;;;;;;;25.94;31.35;98662.28;7340475;19;20530;-70
2023/04/27 06:12:53;;;;;;;8.77;6.53;;;;;;;26.04;30.66;98670.75;7339998;19;20011;-69
2023/04/27 06:15:18;;;;;;;13.40;6.38;;;;;;;26.11;30.25;98669.78;7342344;19;20017;-70
2023/04/27 06:17:42;;;;;;;11.40;6.95;;;;;;;26.32;29.78;98661.09;7343766;19;20014;-70
2023/04/27 06:20:08;;;;;;;11.20;6.60;;;;;;;26.70;29.53;98663.41;7340471;19;20373;-71
2023/04/27 06:22:33;;;;;;;7.80;5.65;;;;;;;26.94;29.08;98669.75;7339574;19;20086;-70
2023/04/27 06:24:57;;;;;;;11.95;5.85;;;;;;;27.44;28.23;98667.28;7336283;19;20035;-70
2023/04/27 06:27:22;;;;;;;7.80;5.15;;;;;;;27.98;27.74;98674.16;7344021;19;20026;-69
2023/04/27 06:29:47;;;;;;;14.25;5.85;;;;;;;28.52;26.74;98664.44;7338872;19;20078;-70
2023/04/27 06:32:11;;;;;;;5.78;5.18;;;;;;;29.50;26.50;98667.56;7338009;19;20014;-70
2023/04/27 06:34:36;;;;;;;8.88;5.47;;;;;;;30.42;24.57;98670.25;7340698;19;20022;-71
2023/04/27 06:37:01;;;;;;;7.82;5.60;;;;;;;31.55;24.14;98669.94;7339782;19;20465;-70
2023/04/27 06:39:26;;;;;;;7.35;4.93;;;;;;;32.38;22.84;98668.00;7338349;19;20049;-70
2023/04/27 06:41:50;;;;;;;8.00;5.63;;;;;;;31.59;22.89;98673.81;7337545;19;20018;-70
2023/04/27 06:44:17;;;;;;;6.38;5.25;;;;;;;30.95;23.80;98665.72;7335776;19;20018;-69
2023/04/27 06:46:42;;;;;;;9.30;5.50;;;;;;;30.89;23.93;98672.28;7339114;19;20022;-71
2023/04/27 06:49:06;;;;;;;12.32;5.60;;;;;;;30.89;23.86;98664.88;7337605;19;20015;-71
2023/04/27 06:51:31;;;;;;;10.70;5.93;;;;;;;31.61;22.67;98666.91;7339496;19;20019;-71
2023/04/27 06:53:56;;;;;;;9.68;4.80;;;;;;;32.35;21.85;98668.56;7338832;19;20022;-68
2023/04/27 06:56:21;;;;;;;6.43;4.68;;;;;;;32.96;22.07;98668.56;7338725;19;20359;-69
2023/04/27 06:58:45;;;;;;;5.53;4.72;;;;;;;33.75;21.30;98676.13;7339768;19;20045;-68
2023/04/27 07:01:10;;;;;;;10.18;5.65;;;;;;;32.78;20.60;98679.06;7336661;19;20014;-68
2023/04/27 07:03:35;;;;;;;6.40;4.93;;;;;;;32.20;21.56;98663.00;7337950;19;20021;-70
2023/04/27 07:06:00;;;;;;;7.88;5.53;;;;;;;32.80;21.45;98676.03;7340751;19;20022;-69
2023/04/27 07:08:25;;;;;;;6.45;5.15;;;;;;;32.11;21.95;98669.03;7338299;19;20038;-70
2023/04/27 07:10:49;;;;;;;8.82;5.88;;;;;;;32.65;22.30;98676.84;7339827;19;20010;-70
2023/04/27 07:13:14;;;;;;;9.00;6.65;;;;;;;32.14;22.00;98680.63;7342734;19;20063;-70
2023/04/27 07:15:39;;;;;;;9.23;6.63;;;;;;;31.75;22.41;98664.53;7347574;19;20011;-70
2023/04/27 07:18:04;;;;;;;11.75;6.65;;;;;;;33.05;22.05;98677.94;7348327;19;20022;-69
2023/04/27 07:20:29;;;;;;;7.63;6.22;;;;;;;34.09;20.95;98687.25;7348966;19;20013;-75
2023/04/27 07:22:54;;;;;;;13.05;6.60;;;;;;;34.23;21.15;98680.81;7347811;19;20054;-70
2023/04/27 07:25:18;;;;;;;8.45;6.28;;;;;;;34.66;19.95;98672.75;7350116;19;20022;-70
2023/04/27 07:27:44;;;;;;;10.43;6.85;;;;;;;34.62;19.96;98668.09;7345383;19;20019;-70
2023/04/27 07:30:12;;;;;;;13.75;6.90;;;;;;;34.84;20.07;98676.78;7347913;19;20468;-70
2023/04/27 07:32:38;;;;;;;8.55;6.50;;;;;;;35.37;19.71;98676.81;7347632;19;20465;-70
2023/04/27 07:35:04;;;;;;;7.95;6.35;;;;;;;35.66;19.56;98672.88;7343217;19;20488;-69
2023/04/27 07:37:30;;;;;;;12.00;7.25;;;;;;;35.58;19.54;98679.06;7349346;19;20021;-70
2023/04/27 07:39:55;;;;;;;13.18;8.90;;;;;;;34.24;20.70;98695.47;7344783;19;20067;-71
2023/04/27 07:42:23;;;;;;;18.25;8.13;;;;;;;33.57;21.13;98691.34;7344521;19;20019;-71
2023/04/27 07:44:49;;;;;;;11.75;7.13;;;;;;;34.10;21.29;98686.97;7342304;19;20017;-71
2023/04/27 07:47:13;;;;;;;11.32;7.57;;;;;;;34.39;21.05;98683.50;7348669;19;20454;-70
2023/04/27 07:49:39;;;;;;;12.60;7.40;;;;;;;35.42;20.55;98685.91;7347719;19;20571;-70
2023/04/27 07:52:04;;;;;;;12.15;7.43;;;;;;;35.80;20.09;98689.63;7343126;19;20015;-70
2023/04/27 07:54:29;;;;;;;11.57;7.85;;;;;;;35.67;19.92;98693.91;7348758;19;20011;-69
2023/04/27 07:56:54;;;;;;;10.25;6.90;;;;;;;34.81;20.06;98688.44;7345707;19;20082;-71
2023/04/27 07:59:18;;;;;;;10.55;7.63;;;;;;;35.14;20.17;98683.97;7342670;19;20014;-70
2023/04/27 08:01:43;;;;;;;8.35;7.18;;;;;;;35.83;20.05;98697.34;7345192;19;20029;-71
2023/04/27 08:04:08;;;;;;;12.55;7.43;;;;;;;35.89;19.91;98690.59;7343350;19;20024;-69
2023/04/27 08:06:33;;;;;;;11.45;7.43;;;;;;;36.48;20.03;98677.28;7347346;19;20019;-69
2023/04/27 08:08:59;;;;;;;10.20;7.80;;;;;;;37.11;19.56;98685.13;7348105;19;20485;-70
2023/04/27 08:11:25;;;;;;;15.45;8.23;;;;;;;37.42;19.52;98687.06;7345651;19;20350;-70
2023/04/27 08:13:50;;;;;;;8.88;7.95;;;;;;;36.76;19.74;98679.09;7342935;19;20022;-71
2023/04/27 08:16:14;;;;;;;13.57;8.82;;;;;;;37.31;19.83;98684.78;7343707;19;20022;-70
2023/04/27 08:18:39;;;;;;;10.07;8.43;;;;;;;38.34;18.90;98688.72;7346168;19;20014;-69
2023/04/27 08:21:03;;;;;;;12.77;9.02;;;;;;;37.25;19.27;98686.03;7341703;19;20775;-71
2023/04/27 08:23:31;;;;;;;10.55;8.48;;;;;;;36.88;19.67;98686.94;7346153;19;20018;-70
2023/04/27 08:25:56;;;;;;;18.92;7.97;;;;;;;36.71;20.47;98676.38;7345301;19;20030;-68
2023/04/27 08:28:22;;;;;;;8.82;7.55;;;;;;;36.71;20.19;98673.59;7351247;19;20015;-70
2023/04/27 08:30:46;;;;;;;7.78;6.97;;;;;;;36.08;19.83;98670.41;7346708;19;20141;-69
2023/04/27 08:33:12;;;;;;;8.55;6.97;;;;;;;35.17;20.28;98677.84;7349445;19;20014;-69
2023/04/27 08:35:37;;;;;;;9.50;6.82;;;;;;;35.06;20.53;98679.06;7344432;19;20018;-69
2023/04/27 08:38:01;;;;;;;9.43;6.93;;;;;;;35.79;19.83;98678.81;7346524;19;20015;-75
2023/04/27 08:40:26;;;;;;;10.65;6.82;;;;;;;36.61;19.68;98680.13;7345083;19;20023;-70
2023/04/27 08:42:58;;;;;;;8.93;6.45;;;;;;;36.49;19.05;98690.06;7342325;19;20014;-69
2023/04/27 08:45:24;;;;;;;12.93;7.55;;;;;;;35.03;20.41;98680.47;7342595;19;20031;-70
2023/04/27 08:47:50;;;;;;;9.65;8.27;;;;;;;35.21;20.61;98682.53;7345236;19;20014;-69
2023/04/27 08:50:15;;;;;;;8.32;7.00;;;;;;;36.15;20.02;98677.22;7345757;19;20022;-69
2023/04/27 08:52:47;;;;;;;10.27;7.60;;;;;;;37.57;19.00;98679.53;7344982;19;20011;-73
2023/04/27 08:55:12;;;;;;;12.52;8.23;;;;;;;38.55;18.13;98680.75;7345666;19;20022;-69
2023/04/27 08:57:37;;;;;;;8.75;7.85;;;;;;;39.56;17.63;98678.06;7348857;19;20006;-70
2023/04/27 09:00:11;;;;;;;11.80;8.45;;;;;;;40.86;17.19;98676.25;7346967;19;20022;-70
2023/04/27 09:02:35;;;;;;;9.00;8.10;;;;;;;41.39;16.66;98672.19;7357470;19;20019;-71
2023/04/27 09:05:01;;;;;;;9.15;8.18;;;;;;;41.34;16.33;98684.38;7349615;19;20022;-70
2023/04/27 09:07:28;;;;;;;9.70;8.35;;;;;;;41.19;16.25;98690.53;7356558;19;20047;-68
2023/04/27 09:10:02;;;;;;;9.35;8.55;;;;;;;41.89;16.38;98677.03;7355056;19;20018;-70
2023/04/27 09:12:28;;;;;;;10.55;9.55;;;;;;;41.28;16.38;98682.13;7352494;19;20007;-69
2023/04/27 09:15:02;;;;;;;10.05;7.85;;;;;;;42.11;15.56;98684.34;7351123;19;20085;-69
2023/04/27 09:17:32;;;;;;;10.25;9.18;;;;;;;42.13;15.65;98677.25;7344011;19;20327;-71
2023/04/27 09:20:07;;;;;;;10.70;8.75;;;;;;;42.55;15.50;98680.06;7342062;19;20021;-70
2023/04/27 09:22:41;;;;;;;9.20;8.30;;;;;;;42.54;15.66;98672.84;7346909;19;20091;-68
2023/04/27 09:25:06;;;;;;;10.65;9.65;;;;;;;41.23;15.52;98668.28;7344785;19;20021;-68
2023/04/27 09:27:31;;;;;;;9.65;8.65;;;;;;;40.75;16.46;98652.59;7343164;19;20098;-70
2023/04/27 09:29:56;;;;;;;8.98;8.07;;;;;;;39.59;16.69;98659.06;7344798;19;20011;-69
2023/04/27 09:32:21;;;;;;;8.75;7.93;;;;;;;37.99;17.99;98664.47;7346608;19;20026;-69
2023/04/27 09:34:46;;;;;;;9.57;8.35;;;;;;;35.22;19.79;98661.16;7342089;19;20010;-69
2023/04/27 09:37:11;;;;;;;8.23;7.43;;;;;;;35.28;20.05;98655.31;7341293;19;20461;-69
2023/04/27 09:39:37;;;;;;;15.73;7.97;;;;;;;35.71;19.69;98668.38;7342154;19;20014;-70
2023/04/27 09:42:03;;;;;;;7.88;6.93;;;;;;;35.32;20.36;98657.50;7341852;19;20484;-69
2023/04/27 09:44:29;;;;;;;9.85;7.03;;;;;;;35.27;20.08;98666.69;7340973;19;20026;-68
2023/04/27 09:46:56;;;;;;;7.65;6.82;;;;;;;35.73;20.22;98660.59;7345305;19;20362;-68
2023/04/27 09:49:22;;;;;;;10.75;7.47;;;;;;;36.84;19.29;98667.28;7339775;19;20041;-68
2023/04/27 09:51:47;;;;;;;7.78;7.05;;;;;;;37.21;19.00;98668.28;7343580;19;20810;-70
2023/04/27 09:54:13;;;;;;;11.30;7.10;;;;;;;37.14;19.33;98668.66;7341492;19;20464;-67
2023/04/27 09:57:03;;;;;;;9.00;7.70;;;;;;;38.78;18.44;98678.78;7346777;19;20015;-70
2023/04/27 09:59:47;;;;;;;7.68;6.88;;;;;;;38.99;17.52;98677.13;7344286;19;20032;-71
2023/04/27 10:02:15;;;;;;;8.70;7.22;;;;;;;39.61;16.94;98685.50;7343040;19;20023;-70
2023/04/27 10:05:12;;;;;;;8.68;7.15;;;;;;;40.86;17.02;98669.88;7340989;19;20014;-68
2023/04/27 10:07:40;;;;;;;8.52;7.72;;;;;;;40.94;16.58;98666.22;7351939;19;20062;-71
2023/04/27 10:10:06;;;;;;;9.52;8.10;;;;;;;41.20;15.96;98664.19;7349192;19;20021;-71
2023/04/27 10:12:35;;;;;;;10.68;9.73;;;;;;;41.82;15.64;98668.38;7341695;19;20019;-70
2023/04/27 10:15:14;;;;;;;10.75;9.15;;;;;;;41.77;15.57;98669.38;7345240;19;20022;-71
2023/04/27 10:17:47;;;;;;;9.32;8.55;;;;;;;40.60;16.19;98664.28;7344911;19;20015;-70
2023/04/27 10:20:12;;;;;;;;;;;;;;;40.45;15.81;98668.41;7350413;19;20023;-69
2023/04/27 10:22:38;;;;;;;8.88;8.07;;;;;;;35.87;18.91;98673.47;7346776;19;19934;-70
2023/04/27 10:25:12;;;;;;;7.10;6.32;;;;;;;34.11;20.43;98660.97;7342031;19;20018;-68
2023/04/27 10:27:38;;;;;;;7.75;6.68;;;;;;;31.08;22.98;98651.50;7342524;19;20010;-70
2023/04/27 10:30:11;;;;;;;10.75;6.30;;;;;;;29.27;25.13;98669.44;7346536;19;20021;-69
2023/04/27 10:32:36;;;;;;;6.57;5.70;;;;;;;28.13;25.28;98666.19;7349583;19;20011;-70
2023/04/27 10:35:08;;;;;;;9.57;5.63;;;;;;;27.57;26.12;98661.56;7346451;19;20055;-69
2023/04/27 10:37:42;;;;;;;8.43;5.65;;;;;;;27.24;26.62;98661.38;7344501;19;20078;-70
2023/04/27 10:40:09;;;;;;;10.43;5.43;;;;;;;26.50;27.17;98668.38;7346328;19;20022;-71
2023/04/27 10:42:33;;;;;;;9.38;5.93;;;;;;;25.94;28.41;98672.38;7347035;19;20070;-69
2023/04/27 10:44:58;;;;;;;9.43;6.20;;;;;;;25.39;29.61;98669.72;7343219;19;20031;-70
2023/04/27 10:47:23;;;;;;;12.25;6.13;;;;;;;24.75;30.48;98673.69;7340692;19;20023;-69
2023/04/27 10:49:51;;;;;;;10.75;5.90;;;;;;;24.24;31.84;98677.50;7351335;19;20010;-70
2023/04/27 10:52:16;;;;;;;11.20;5.78;;;;;;;23.80;31.71;98682.97;7350453;19;20048;-68
2023/04/27 10:54:44;;;;;;;7.50;6.22;;;;;;;23.38;32.67;98677.06;7348389;19;20015;-68
2023/04/27 10:57:10;;;;;;;9.93;5.72;;;;;;;22.88;33.86;98681.38;7350856;19;20022;-68
2023/04/27 10:59:51;;;;;;;6.10;5.40;;;;;;;22.79;33.85;98683.50;7350203;19;20030;-68
2023/04/27 11:02:17;;;;;;;8.57;6.10;;;;;;;22.36;34.48;98685.75;7349602;19;20026;-70
2023/04/27 11:04:42;;;;;;;9.48;5.20;;;;;;;22.11;35.69;98684.72;7344766;19;20007;-70
2023/04/27 11:07:09;;;;;;;8.57;5.63;;;;;;;21.95;36.11;98691.31;7346490;19;20021;-70
2023/04/27 11:09:41;;;;;;;14.18;6.40;;;;;;;21.88;37.38;98698.63;7349876;19;20010;-70
2023/04/27 11:12:07;;;;;;;10.57;6.18;;;;;;;21.82;37.51;98696.72;7350571;19;20007;-69
2023/04/27 11:14:35;;;;;;;8.93;5.63;;;;;;;21.74;37.85;98699.63;7349946;19;20014;-69
2023/04/27 11:17:00;;;;;;;11.00;5.90;;;;;;;21.72;38.19;98698.97;7350579;19;20010;-69
2023/04/27 11:19:25;;;;;;;7.40;5.60;;;;;;;21.75;37.84;98693.16;7349846;19;20022;-72
2023/04/27 11:21:50;;;;;;;9.82;5.43;;;;;;;21.83;38.07;98692.97;7350520;19;20031;-74